Flight Track Log - Related Links

Times and Time Zones

All times are in EDT time to prevent confusion due to time zone crossing. See the N770NC flight status page for this flight to view local times or setup timezone preferences in your user account.

Time Position Orientation Groundspeed Altitude Reporting Facility
EDT Latitude Longitude Course Direction KTS MPH feet Rate Location/Type
Wed 05:59:30 PM 33.6667 -84.5167 270° West 238 274 2,700  Level Atlanta TRACON
Wed 06:00:30 PM 33.6833 -84.6000 284° West 263 303 5,400 2,500 Climbing Atlanta TRACON
Wed 06:01:00 PM 33.6772 -84.8226 277° West  Level FlightAware Approximate
Wed 06:01:30 PM 33.7000 -84.6833 284° West 276 318 7,700  Level Atlanta TRACON
Wed 06:02:00 PM 33.6918 -84.9423 280° West  Level FlightAware Approximate
Wed 06:03:00 PM 33.7105 -85.0731 280° West  Level FlightAware Approximate
Wed 06:03:56 PM 33.6825 -84.9275 265° West 310 357 10,700  Level Atlanta Center
Wed 06:04:00 PM 33.7167 -85.2051 270° West  Level FlightAware Approximate
Wed 06:04:56 PM 33.6753 -85.0572 266° West 366 421 12,200  Level Atlanta Center
Wed 06:05:56 PM 33.6783 -85.1872 272° West 389 448 14,300 2,000 Climbing Atlanta Center
Wed 06:06:56 PM 33.6769 -85.3194 269° West 399 459 16,200 1,700 Climbing Atlanta Center
Wed 06:07:56 PM 33.6756 -85.4492 269° West 397 457 17,700 1,300 Climbing Atlanta Center
Wed 06:08:56 PM 33.6739 -85.5914 269° West 409 471 18,800 1,250 Climbing Atlanta Center
Wed 06:09:56 PM 33.6700 -85.7311 268° West 423 487 20,200 1,350 Climbing Atlanta Center
Wed 06:10:56 PM 33.6681 -85.8558 269° West 423 487 21,500 1,450 Climbing Atlanta Center
Wed 06:11:56 PM 33.6681 -85.9956 270° West 423 487 23,100 1,350 Climbing Atlanta Center
Wed 06:12:56 PM 33.6658 -86.1378 269° West 423 487 24,200 1,100 Climbing Atlanta Center
Wed 06:13:56 PM 33.6633 -86.2825 269° West 428 493 25,300 1,050 Climbing Atlanta Center
Wed 06:14:56 PM 33.6625 -86.4272 270° West 433 498 26,300 1,200 Climbing Atlanta Center
Wed 06:15:56 PM 33.6597 -86.5694 269° West 438 504 27,700 850 Climbing Atlanta Center
Wed 06:16:56 PM 33.6567 -86.7167 269° West 438 504 28,000 150 Climbing Atlanta Center
Wed 06:17:56 PM 33.6553 -86.8664 269° West 444 511 28,000  Level Atlanta Center
Wed 06:18:56 PM 33.6664 -87.0214 275° West 454 522 28,000  Level Atlanta Center
Wed 06:19:56 PM 33.6772 -87.1742 275° West 461 531 28,000  Level Atlanta Center
Wed 06:21:32 PM 33.7367 -87.4022 287° West 457 526 28,000  Level Memphis Center
Wed 06:22:32 PM 33.7858 -87.5406 293° West 452 520 28,000  Level Memphis Center
Wed 06:23:32 PM 33.8306 -87.6767 292° West 447 514 28,000  Level Memphis Center
Wed 06:24:32 PM 33.8650 -87.8181 286° West 441 507 28,000  Level Memphis Center
Wed 06:25:32 PM 33.9053 -87.9594 289° West 441 507 28,000  Level Memphis Center
Wed 06:26:32 PM 33.9350 -88.0989 284° West 435 501 28,000  Level Memphis Center
Wed 06:27:32 PM 33.9647 -88.2483 284° West 451 519 28,000  Level Memphis Center
Wed 06:28:32 PM 33.9964 -88.3931 285° West 451 519 28,000  Level Memphis Center
Wed 06:29:32 PM 34.0300 -88.5350 286° West 446 513 28,000  Level Memphis Center
Wed 06:30:32 PM 34.0611 -88.6772 285° West 446 513 28,000  Level Memphis Center
Wed 06:31:32 PM 34.0964 -88.8219 286° West 446 513 28,000  Level Memphis Center
Wed 06:32:32 PM 34.1294 -88.9769 284° West 446 513 28,000  Level Memphis Center
Wed 06:33:32 PM 34.1603 -89.1172 285° West 441 507 28,000  Level Memphis Center
Wed 06:34:32 PM 34.1867 -89.2625 282° West 441 507 28,000  Level Memphis Center
Wed 06:35:32 PM 34.1961 -89.4103 274° West 447 514 28,000  Level Memphis Center
Wed 06:36:32 PM 34.2075 -89.5458 276° West 442 509 28,000  Level Memphis Center
Wed 06:37:32 PM 34.2189 -89.6939 275° West 442 509 28,000 -400 Level Memphis Center
Wed 06:38:32 PM 34.2322 -89.8472 276° West 447 514 27,200 -900 Descending Memphis Center
Wed 06:39:32 PM 34.2453 -89.9978 276° West 452 520 26,200 -950 Descending Memphis Center
Wed 06:40:32 PM 34.2581 -90.1511 276° West 458 527 25,300 -950 Descending Memphis Center
Wed 06:41:32 PM 34.2792 -90.3144 279° West 458 527 24,300 -1,000 Descending Memphis Center
Wed 06:42:32 PM 34.2958 -90.4578 278° West 452 520 23,300 -1,000 Descending Memphis Center
Wed 06:43:32 PM 34.3144 -90.6011 279° West 440 506 22,300 -1,150 Descending Memphis Center
Wed 06:44:32 PM 34.3392 -90.7369 282° West 425 489 21,000 -1,700 Descending Memphis Center
Wed 06:45:32 PM 34.3636 -90.8706 283° West 420 483 18,900 -2,350 Descending Memphis Center
Wed 06:46:32 PM 34.3903 -91.0064 283° West 415 478 16,300 -2,300 Descending Memphis Center
Wed 06:47:32 PM 34.4144 -91.1350 283° West 405 466 14,300 -1,858 Descending Memphis Center
Wed 06:48:25 PM 34.4389 -91.2436 285° West 384 442 12,800 -1,699 Descending Memphis Center
Wed 06:49:25 PM 34.4631 -91.3622 284° West 374 430 11,100 -1,357 Descending Memphis Center
Wed 06:50:20 PM 34.4975 -91.4736 291° West 363 418 10,200 -569 Descending Memphis Center
Wed 06:51:21 PM 34.5383 -91.5750 296° West 344 396 10,000 -378 Descending Memphis Center
Wed 06:52:27 PM 34.5769 -91.6764 295° West 271 312 9,400 -1,228 Descending Memphis Center
Wed 06:53:28 PM 34.5967 -91.7700 284° West 268 308 7,400 -1,826 Descending Memphis Center
Wed 06:54:22 PM 34.6083 -91.8483 280° West 272 313 5,900 -1,403 Descending Memphis Center
Wed 06:55:32 PM 34.6406 -91.9347 294° West 274 315 4,500 -1,339 Descending Memphis Center
Wed 06:56:23 PM 34.6817 -91.9986 308° West 258 297 3,200 -1,100 Descending Memphis Center
Wed 06:57:32 PM 34.7350 -92.0631 315° West 256 295 2,300 -689 Descending Memphis Center
Wed 06:58:25 PM 34.7739 -92.1167 311° West 210 242 1,800 -450 Descending Memphis Center
Wed 06:59:32 PM 34.7814 -92.1700 280° West 213 245 1,400 -425 Descending Memphis Center
Wed 07:00:32 PM 34.7600 -92.2125 239° Southwest 156 180 900 -500 Descending Memphis Center

Login

Don't have an account? Register now (free) for customized features, flight alerts, and more!